Terminal Aerodrome Forecast
Issued by NWS

Home | Current Version | Previous Version | Graphics & Text | Print | Product List | Glossary On
Versions: 1 2 3 4 5 6 7 8 9 10 11 12 13 14 15 16
000
FTUS43 KLSX 221120
TAFSUS
TAF
KSUS 221120Z 2212/2312 23006KT P6SM SKC
     FM230300 25004KT P6SM VCTS SCT200CB
     FM230600 25004KT P6SM SCT200=

USA.gov is the U.S. government's official web portal to all federal, state and local government web resources and services.